createdAt,value
2023-03-04T00:00:56.371Z,101720.63
2023-03-04T00:03:26.490Z,101774.88
2023-03-04T00:05:56.247Z,101729.31
2023-03-04T00:08:26.006Z,101723.94
2023-03-04T00:10:55.772Z,101724.16
2023-03-04T00:13:25.758Z,101709.28
2023-03-04T00:15:58.226Z,101774.78
2023-03-04T00:18:28.001Z,101704.94
2023-03-04T00:20:57.612Z,101772.75
2023-03-04T00:23:27.381Z,101772.19
2023-03-04T00:25:57.206Z,101789.03
2023-03-04T00:28:27.029Z,101712.72
2023-03-04T00:30:59.637Z,101727.97
2023-03-04T00:33:29.413Z,101794.97
2023-03-04T00:35:59.043Z,101780.28
2023-03-04T00:38:28.885Z,101790.31
2023-03-04T00:40:58.547Z,101760.19
2023-03-04T00:43:28.338Z,101777.31
2023-03-04T00:46:00.859Z,101780.19
2023-03-04T00:48:30.551Z,101788.59
2023-03-04T00:51:00.177Z,101775.59
2023-03-04T00:53:29.864Z,101762.72
2023-03-04T00:55:59.522Z,101763.72
2023-03-04T00:58:29.130Z,101777.31
2023-03-04T01:01:01.489Z,101782.72
2023-03-04T01:03:32.773Z,101751.31
2023-03-04T01:06:02.447Z,101774.34
2023-03-04T01:08:32.081Z,101769.81
2023-03-04T01:11:01.876Z,101765.25
2023-03-04T01:13:31.573Z,101732.59
2023-03-04T01:16:05.136Z,101751.75
2023-03-04T01:18:35.081Z,101750.44
2023-03-04T01:21:05.496Z,101767.19
2023-03-04T01:23:35.135Z,101737.50
2023-03-04T01:26:04.751Z,101743.09
2023-03-04T01:28:35.985Z,101744.06
2023-03-04T01:31:08.489Z,101752.16
2023-03-04T01:33:38.224Z,101675.44
2023-03-04T01:36:08.386Z,101745.09
2023-03-04T01:38:38.061Z,101739.88
2023-03-04T01:41:08.515Z,101730.53
2023-03-04T01:43:40.150Z,101702.75
2023-03-04T01:46:12.951Z,101628.63
2023-03-04T01:48:42.760Z,101673.38
2023-03-04T01:51:16.917Z,101711.94
2023-03-04T01:53:47.474Z,101708.88
2023-03-04T01:56:21.970Z,101690.00
2023-03-04T01:59:14.321Z,101707.31
2023-03-04T02:01:49.068Z,101700.66
2023-03-04T02:04:20.612Z,101659.22
2023-03-04T02:06:51.882Z,101700.56
2023-03-04T02:09:22.882Z,101679.72
2023-03-04T02:11:53.830Z,101693.03
2023-03-04T02:14:24.641Z,101693.22
2023-03-04T02:16:57.046Z,101626.16
2023-03-04T02:19:47.585Z,101686.50
2023-03-04T02:22:17.321Z,101668.00
2023-03-04T02:24:51.732Z,101667.66
2023-03-04T02:27:24.283Z,101616.19
2023-03-04T02:29:55.141Z,101670.88
2023-03-04T02:32:24.929Z,101685.09
2023-03-04T02:34:54.750Z,101677.22
2023-03-04T02:37:24.728Z,101598.06
2023-03-04T02:39:57.030Z,101679.94
2023-03-04T02:42:29.267Z,101672.97
2023-03-04T02:45:03.987Z,101679.56
2023-03-04T02:47:33.751Z,101620.03
2023-03-04T02:50:03.725Z,101670.78
2023-03-04T02:52:34.031Z,101664.50
2023-03-04T02:55:03.822Z,101665.53
2023-03-04T02:57:36.027Z,101669.72
2023-03-04T03:00:06.239Z,101669.03
2023-03-04T03:02:35.941Z,101655.94
2023-03-04T03:05:05.785Z,101665.38
2023-03-04T03:07:35.847Z,101668.78
2023-03-04T03:10:05.607Z,101659.09
2023-03-04T03:12:37.972Z,101669.19
2023-03-04T03:15:09.042Z,101632.56
2023-03-04T03:17:38.969Z,101663.78
2023-03-04T03:20:10.394Z,101627.69
2023-03-04T03:22:40.224Z,101627.00
2023-03-04T03:25:11.800Z,101616.09
2023-03-04T03:27:44.459Z,101646.25
2023-03-04T03:30:18.005Z,101644.69
2023-03-04T03:32:47.623Z,101655.94
2023-03-04T03:35:17.626Z,101599.59
2023-03-04T03:37:49.038Z,101651.91
2023-03-04T03:40:18.802Z,101608.16
2023-03-04T03:42:51.147Z,101654.28
2023-03-04T03:45:20.900Z,101636.94
2023-03-04T03:47:50.552Z,101643.38
2023-03-04T03:50:20.462Z,101578.06
2023-03-04T03:52:50.122Z,101642.59
2023-03-04T03:55:19.812Z,101635.44
2023-03-04T03:57:52.014Z,101617.00
2023-03-04T04:00:22.559Z,101626.41
2023-03-04T04:02:52.614Z,101638.44
2023-03-04T04:05:22.448Z,101631.09
2023-03-04T04:07:54.074Z,101615.63
2023-03-04T04:10:24.136Z,101609.38
2023-03-04T04:12:56.342Z,101632.28
2023-03-04T04:15:25.952Z,101612.63
2023-03-04T04:17:55.582Z,101630.16
2023-03-04T04:20:26.305Z,101630.69
2023-03-04T04:22:56.005Z,101640.94
2023-03-04T04:25:25.959Z,101633.22
2023-03-04T04:27:58.318Z,101622.31
2023-03-04T04:30:28.348Z,101622.91
2023-03-04T04:33:01.647Z,101639.72
2023-03-04T04:35:31.498Z,101636.06
2023-03-04T04:38:01.141Z,101576.47
2023-03-04T04:40:30.733Z,101632.44
2023-03-04T04:43:02.961Z,101624.91
2023-03-04T04:45:32.605Z,101625.19
2023-03-04T04:48:02.233Z,101631.56
2023-03-04T04:50:33.019Z,101622.22
2023-03-04T04:53:02.858Z,101622.69
2023-03-04T04:55:32.737Z,101606.91
2023-03-04T04:58:04.927Z,101607.31
2023-03-04T05:00:34.539Z,101614.28
2023-03-04T05:03:04.234Z,101612.16
2023-03-04T05:05:33.980Z,101574.66
2023-03-04T05:08:03.719Z,101612.44
2023-03-04T05:10:33.348Z,101613.56
2023-03-04T05:13:05.560Z,101617.22
2023-03-04T05:15:35.251Z,101618.69
2023-03-04T05:18:07.675Z,101612.75
2023-03-04T05:20:37.351Z,101592.00
2023-03-04T05:23:07.100Z,101610.78
2023-03-04T05:25:36.853Z,101602.63
2023-03-04T05:28:12.498Z,101606.31
2023-03-04T05:30:42.529Z,101608.56
2023-03-04T05:33:13.865Z,101603.91
2023-03-04T05:35:44.714Z,101610.41
2023-03-04T05:38:15.757Z,101606.56
2023-03-04T05:40:46.232Z,101571.00
2023-03-04T05:43:19.236Z,101608.31
2023-03-04T05:45:48.921Z,101609.91
2023-03-04T05:48:18.747Z,101610.19
2023-03-04T05:50:48.609Z,101597.00
2023-03-04T05:53:18.210Z,101608.88
2023-03-04T05:55:49.888Z,101610.72
2023-03-04T05:58:23.210Z,101596.50
2023-03-04T06:00:53.056Z,101611.66
2023-03-04T06:03:25.270Z,101622.31
2023-03-04T06:05:56.020Z,101608.38
2023-03-04T06:08:25.780Z,101568.06
2023-03-04T06:10:56.919Z,101590.41
2023-03-04T06:13:29.471Z,101596.84
2023-03-04T06:16:01.098Z,101586.53
2023-03-04T06:18:31.924Z,101599.38
2023-03-04T06:21:02.290Z,101601.72
2023-03-04T06:23:32.794Z,101610.28
2023-03-04T06:26:03.552Z,101598.59
2023-03-04T06:28:35.831Z,101577.16
2023-03-04T06:31:05.608Z,101594.41
2023-03-04T06:33:35.452Z,101609.78
2023-03-04T06:36:05.176Z,101597.56
2023-03-04T06:38:34.788Z,101555.06
2023-03-04T06:41:09.738Z,101618.16
2023-03-04T06:43:42.453Z,101608.81
2023-03-04T06:46:12.523Z,101615.53
2023-03-04T06:48:42.395Z,101606.53
2023-03-04T06:51:13.613Z,101613.44
2023-03-04T06:53:44.113Z,101614.38
2023-03-04T06:56:16.177Z,101621.19
2023-03-04T06:58:49.109Z,101547.84
2023-03-04T07:01:20.960Z,101607.41
2023-03-04T07:03:51.587Z,101589.84
2023-03-04T07:06:23.880Z,101575.19
2023-03-04T07:08:54.025Z,101536.56
2023-03-04T07:11:24.954Z,101557.66
2023-03-04T07:13:57.393Z,101576.94
2023-03-04T07:16:27.415Z,101555.59
2023-03-04T07:18:57.099Z,101595.78
2023-03-04T07:21:27.173Z,101595.97
2023-03-04T07:23:56.866Z,101610.81
2023-03-04T07:26:26.856Z,101606.19
2023-03-04T07:28:59.985Z,101602.88
2023-03-04T07:31:32.179Z,101613.78
2023-03-04T07:34:03.725Z,101612.72
2023-03-04T07:36:34.365Z,101584.50
2023-03-04T07:39:04.002Z,101611.94
2023-03-04T07:41:36.406Z,101620.56
2023-03-04T07:44:12.764Z,101627.22
2023-03-04T07:46:42.821Z,101616.72
2023-03-04T07:49:14.717Z,101615.78
2023-03-04T07:51:44.371Z,101613.84
2023-03-04T07:54:14.017Z,101612.50
2023-03-04T07:56:43.699Z,101578.59
2023-03-04T07:59:15.877Z,101596.38
2023-03-04T08:01:45.793Z,101612.16
2023-03-04T08:04:15.527Z,101604.31
2023-03-04T08:06:45.231Z,101524.97
2023-03-04T08:09:15.170Z,101609.09
2023-03-04T08:11:45.986Z,101584.44
2023-03-04T08:14:18.267Z,101621.31
2023-03-04T08:16:47.889Z,101610.22
2023-03-04T08:19:17.587Z,101624.81
2023-03-04T08:21:47.920Z,101604.31
2023-03-04T08:24:17.795Z,101569.66
2023-03-04T08:26:50.451Z,101609.56
2023-03-04T08:29:24.892Z,101607.03
2023-03-04T08:31:56.256Z,101609.81
2023-03-04T08:34:28.747Z,101607.19
2023-03-04T08:36:58.524Z,101603.88
2023-03-04T08:39:28.134Z,101563.63
2023-03-04T08:41:57.760Z,101612.03
2023-03-04T08:44:30.139Z,101574.53
2023-03-04T08:46:59.826Z,101603.59
2023-03-04T08:49:29.418Z,101441.81
2023-03-04T08:51:59.031Z,101603.06
2023-03-04T08:54:28.640Z,101613.19
2023-03-04T08:56:58.697Z,101614.06
2023-03-04T08:59:30.935Z,101610.56
2023-03-04T09:02:00.678Z,101606.88
2023-03-04T09:04:30.324Z,101397.06
2023-03-04T09:07:00.003Z,101574.63
2023-03-04T09:09:29.873Z,101594.78
2023-03-04T09:11:59.509Z,101582.34
2023-03-04T09:14:32.729Z,101613.94
2023-03-04T09:17:02.534Z,101606.75
2023-03-04T09:19:32.402Z,101619.31
2023-03-04T09:22:02.220Z,101621.38
2023-03-04T09:24:32.125Z,101595.06
2023-03-04T09:27:01.753Z,101608.97
2023-03-04T09:29:33.985Z,101605.28
2023-03-04T09:32:03.688Z,101628.81
2023-03-04T09:34:33.353Z,101610.84
2023-03-04T09:37:02.987Z,101613.16
2023-03-04T09:39:32.628Z,101596.34
2023-03-04T09:42:04.306Z,101627.47
2023-03-04T09:44:40.502Z,101625.50
2023-03-04T09:47:16.577Z,101616.00
2023-03-04T09:49:51.621Z,101620.56
2023-03-04T09:52:33.760Z,101617.75
2023-03-04T09:55:08.889Z,101613.34
2023-03-04T09:57:53.425Z,101607.13
2023-03-04T10:00:28.317Z,101609.25
2023-03-04T10:03:15.244Z,101612.53
2023-03-04T10:05:51.533Z,101582.03
2023-03-04T10:08:36.305Z,101500.69
2023-03-04T10:11:12.297Z,101563.63
2023-03-04T10:13:51.222Z,101600.09
2023-03-04T10:16:29.344Z,101538.53
2023-03-04T10:19:02.251Z,101606.72
2023-03-04T10:21:36.053Z,101591.41
2023-03-04T10:24:15.297Z,101592.16
2023-03-04T10:26:49.187Z,101598.63
2023-03-04T10:29:20.846Z,101580.72
2023-03-04T10:31:56.121Z,101598.00
2023-03-04T10:34:26.535Z,101585.47
2023-03-04T10:37:02.577Z,101590.19
2023-03-04T10:39:34.698Z,101536.63
2023-03-04T10:42:07.015Z,101592.56
2023-03-04T10:44:39.966Z,101585.81
2023-03-04T10:47:14.362Z,101575.50
2023-03-04T10:49:54.694Z,101583.94
2023-03-04T10:52:31.770Z,101566.81
2023-03-04T10:55:03.492Z,101548.38
2023-03-04T10:57:38.729Z,101592.72
2023-03-04T11:00:28.876Z,101550.88
2023-03-04T11:03:27.903Z,101576.53
2023-03-04T11:06:13.481Z,101582.19
2023-03-04T11:08:44.406Z,101577.56
2023-03-04T11:11:42.559Z,101576.31
2023-03-04T11:14:26.125Z,101565.75
2023-03-04T11:16:58.279Z,101572.91
2023-03-04T11:19:34.197Z,101574.56
2023-03-04T11:22:04.397Z,101587.88
2023-03-04T11:24:38.313Z,101575.56
2023-03-04T11:27:16.229Z,101578.91
2023-03-04T11:29:54.951Z,101540.81
2023-03-04T11:32:30.207Z,101520.22
2023-03-04T11:35:13.383Z,101588.47
2023-03-04T11:37:47.995Z,101521.47
2023-03-04T11:40:26.192Z,101522.91
2023-03-04T11:43:00.875Z,101595.88
2023-03-04T11:45:38.462Z,101590.13
2023-03-04T11:48:16.333Z,101576.81
2023-03-04T11:50:52.444Z,101582.44
2023-03-04T11:53:32.070Z,101554.22
2023-03-04T11:56:25.218Z,101567.53
2023-03-04T11:59:39.411Z,101565.78
2023-03-04T12:02:17.228Z,101542.31
2023-03-04T12:05:06.245Z,101567.47
2023-03-04T12:07:49.566Z,101560.88
2023-03-04T12:10:28.001Z,101551.59
2023-03-04T12:13:28.369Z,101541.72
2023-03-04T12:16:08.927Z,101561.09
2023-03-04T12:18:54.896Z,101546.16
2023-03-04T12:21:42.574Z,101523.75
2023-03-04T12:24:37.347Z,101548.84
2023-03-04T12:27:18.170Z,101533.06
2023-03-04T12:29:54.981Z,101525.50
2023-03-04T12:32:30.647Z,101527.78
2023-03-04T12:35:22.302Z,101517.75
2023-03-04T12:38:19.374Z,101509.28
2023-03-04T12:41:03.361Z,101500.69
2023-03-04T12:43:53.172Z,101494.88
2023-03-04T12:46:34.741Z,101492.91
2023-03-04T12:49:28.789Z,101508.28
2023-03-04T12:52:09.373Z,101512.19
2023-03-04T12:54:43.312Z,101520.25
2023-03-04T12:57:17.625Z,101514.88
2023-03-04T12:59:53.977Z,101509.22
2023-03-04T13:02:37.074Z,101509.22
2023-03-04T13:05:26.030Z,101482.81
2023-03-04T13:08:05.201Z,101511.44
2023-03-04T13:10:35.318Z,101499.03
2023-03-04T13:13:07.787Z,101506.53
2023-03-04T13:15:39.598Z,101496.69
2023-03-04T13:18:34.417Z,101500.13
2023-03-04T13:21:26.386Z,101507.44
2023-03-04T13:23:56.746Z,101482.78
2023-03-04T13:26:31.780Z,101511.09
2023-03-04T13:35:47.984Z,101331.47
2023-03-04T16:03:08.793Z,101159.06
2023-03-04T16:05:40.708Z,101323.94
2023-03-04T16:08:15.660Z,101394.47
2023-03-04T16:10:46.560Z,101475.78
2023-03-04T16:13:19.521Z,101322.13
2023-03-04T16:15:49.999Z,101352.31
2023-03-04T16:18:23.766Z,101455.63
2023-03-04T16:20:54.095Z,101481.88
2023-03-04T16:23:26.541Z,101456.31
2023-03-04T16:25:58.365Z,101457.19
2023-03-04T16:28:28.041Z,101455.88
2023-03-04T16:30:57.684Z,101465.94
2023-03-04T16:33:29.873Z,101451.47
2023-03-04T16:36:00.033Z,101460.03
2023-03-04T16:38:34.141Z,101445.81
2023-03-04T16:41:05.127Z,101460.38
2023-03-04T16:43:35.139Z,101391.47
2023-03-04T16:46:04.866Z,101444.56
2023-03-04T16:48:37.249Z,101449.16
2023-03-04T16:51:20.597Z,101458.09
2023-03-04T16:53:52.134Z,101476.91
2023-03-04T16:56:22.857Z,101400.16
2023-03-04T16:58:54.858Z,101391.09
2023-03-04T17:01:26.862Z,101471.56
2023-03-04T17:04:00.375Z,101390.19
2023-03-04T17:06:30.636Z,101423.72
2023-03-04T17:09:00.339Z,101474.91
2023-03-04T17:11:29.957Z,101447.38
2023-03-04T17:13:59.619Z,101454.59
2023-03-04T17:16:29.723Z,101473.22
2023-03-04T17:19:02.565Z,101434.50
2023-03-04T17:21:32.185Z,101474.66
2023-03-04T17:24:03.224Z,101430.31
2023-03-04T17:26:33.841Z,101477.97
2023-03-04T17:29:03.531Z,101457.84
2023-03-04T17:31:33.296Z,101439.47
2023-03-04T17:34:06.091Z,101426.19
2023-03-04T17:36:36.323Z,101479.38
2023-03-04T17:39:06.951Z,101453.88
2023-03-04T17:41:36.737Z,101420.94
2023-03-04T17:44:06.776Z,101487.31
2023-03-04T17:46:36.584Z,101465.44
2023-03-04T17:49:08.909Z,101484.13
2023-03-04T17:51:41.118Z,101444.25
2023-03-04T17:54:12.019Z,101475.75
2023-03-04T17:56:43.497Z,101488.78
2023-03-04T17:59:16.377Z,101446.06
2023-03-04T18:01:47.291Z,101468.94
2023-03-04T18:04:20.157Z,101445.75
2023-03-04T18:06:50.017Z,101420.59
2023-03-04T18:09:20.993Z,101412.59
2023-03-04T18:11:50.921Z,101429.22
2023-03-04T18:14:20.567Z,101467.34
2023-03-04T18:16:50.240Z,101484.59
2023-03-04T18:19:22.472Z,101475.75
2023-03-04T18:21:52.210Z,101436.31
2023-03-04T18:24:21.879Z,101482.59
2023-03-04T18:26:51.541Z,101489.94
2023-03-04T18:29:21.221Z,101497.44
2023-03-04T18:31:50.953Z,101495.00
2023-03-04T18:34:23.323Z,101455.00
2023-03-04T18:36:53.016Z,101478.97
2023-03-04T18:39:22.744Z,101490.63
2023-03-04T18:41:52.373Z,101481.66
2023-03-04T18:44:22.010Z,101480.78
2023-03-04T18:46:55.574Z,101501.19
2023-03-04T18:49:28.061Z,101455.69
2023-03-04T18:51:57.688Z,101497.44
2023-03-04T18:54:27.392Z,101481.22
2023-03-04T18:56:59.967Z,101484.88
2023-03-04T18:59:33.421Z,101471.38
2023-03-04T19:02:07.583Z,101479.03
2023-03-04T19:04:40.693Z,101501.34
2023-03-04T19:07:11.340Z,101439.56
2023-03-04T19:09:41.962Z,101476.69
2023-03-04T19:12:12.760Z,101492.47
2023-03-04T19:14:43.720Z,101469.44
2023-03-04T19:17:14.381Z,101505.44
2023-03-04T19:19:46.735Z,101509.47
2023-03-04T19:22:16.526Z,101497.09
2023-03-04T19:24:46.146Z,101490.41
2023-03-04T19:27:15.940Z,101516.34
2023-03-04T19:29:45.614Z,101489.00
2023-03-04T19:32:17.350Z,101500.13
2023-03-04T19:34:50.356Z,101503.63
2023-03-04T19:37:20.040Z,101490.38
2023-03-04T19:39:50.373Z,101513.81
2023-03-04T19:42:20.000Z,101488.88
2023-03-04T19:44:49.674Z,101495.59
2023-03-04T19:47:19.318Z,101505.16
2023-03-04T19:49:51.530Z,101503.50
2023-03-04T19:52:21.335Z,101513.28
2023-03-04T19:54:51.020Z,101514.69
2023-03-04T19:57:20.709Z,101511.56
2023-03-04T19:59:50.681Z,101505.38
2023-03-04T20:02:20.340Z,101510.25
2023-03-04T20:04:52.531Z,101528.41
2023-03-04T20:07:22.135Z,101511.22
2023-03-04T20:09:51.726Z,101483.31
2023-03-04T20:12:21.407Z,101520.28
2023-03-04T20:14:51.224Z,101498.66
2023-03-04T20:17:20.943Z,101525.53
2023-03-04T20:19:53.410Z,101517.06
2023-03-04T20:22:23.085Z,101522.63
2023-03-04T20:24:54.886Z,101502.69
2023-03-04T20:27:24.709Z,101509.63
2023-03-04T20:29:55.157Z,101504.75
2023-03-04T20:32:24.953Z,101491.78
2023-03-04T20:34:58.342Z,101459.09
2023-03-04T20:37:27.985Z,101507.00
2023-03-04T20:39:58.183Z,101475.81
2023-03-04T20:42:27.965Z,101506.47
2023-03-04T20:44:57.611Z,101448.63
2023-03-04T20:47:27.224Z,101495.00
2023-03-04T20:49:59.517Z,101476.59
2023-03-04T20:52:29.152Z,101500.31
2023-03-04T20:54:58.817Z,101516.78
2023-03-04T20:57:29.360Z,101493.28
2023-03-04T20:59:59.051Z,101493.28
2023-03-04T21:02:28.698Z,101490.50
2023-03-04T21:05:01.422Z,101471.47
2023-03-04T21:07:31.166Z,101500.84
2023-03-04T21:10:00.849Z,101498.31
2023-03-04T21:12:30.473Z,101485.09
2023-03-04T21:15:00.125Z,101474.09
2023-03-04T21:17:29.757Z,101495.34
2023-03-04T21:20:02.040Z,101495.53
2023-03-04T21:22:31.904Z,101498.84
2023-03-04T21:25:01.506Z,101498.13
2023-03-04T21:27:31.380Z,101463.63
2023-03-04T21:30:01.021Z,101490.63
2023-03-04T21:32:30.730Z,101478.34
2023-03-04T21:35:03.115Z,101476.25
2023-03-04T21:37:32.747Z,101465.53
2023-03-04T21:40:02.485Z,101451.06
2023-03-04T21:42:32.777Z,101487.00
2023-03-04T21:45:02.569Z,101485.16
2023-03-04T21:47:32.260Z,101477.44
2023-03-04T21:50:04.682Z,101434.63
2023-03-04T21:52:34.368Z,101455.03
2023-03-04T21:55:03.964Z,101485.25
2023-03-04T21:57:33.611Z,101453.09
2023-03-04T22:00:04.817Z,101420.16
2023-03-04T22:02:41.498Z,101451.00
2023-03-04T22:05:13.846Z,101443.56
2023-03-04T22:07:43.511Z,101469.03
2023-03-04T22:10:14.211Z,101457.34
2023-03-04T22:12:43.860Z,101457.63
2023-03-04T22:15:14.392Z,101448.28
2023-03-04T22:17:45.820Z,101428.78
2023-03-04T22:20:18.752Z,101452.13
2023-03-04T22:22:48.359Z,101430.00
2023-03-04T22:25:18.149Z,101450.03
2023-03-04T22:27:47.850Z,101421.13
2023-03-04T22:30:18.498Z,101401.09
2023-03-04T22:32:48.548Z,101459.09
2023-03-04T22:35:21.330Z,101431.38
2023-03-04T22:37:51.024Z,101433.31
2023-03-04T22:40:20.809Z,101449.88
2023-03-04T22:42:50.912Z,101426.19
2023-03-04T22:45:21.669Z,101449.25
2023-03-04T22:47:53.791Z,101440.72
2023-03-04T22:50:26.099Z,101457.56
2023-03-04T22:52:55.856Z,101453.09
2023-03-04T22:55:25.904Z,101430.34
2023-03-04T22:57:55.939Z,101414.50
2023-03-04T23:00:28.740Z,101435.75
2023-03-04T23:02:58.430Z,101444.31
2023-03-04T23:05:31.172Z,101435.75
2023-03-04T23:08:00.782Z,101415.03
2023-03-04T23:10:30.395Z,101432.50
2023-03-04T23:13:00.022Z,101420.75
2023-03-04T23:15:29.665Z,101426.25
2023-03-04T23:17:59.314Z,101428.78
2023-03-04T23:20:31.796Z,101410.22
2023-03-04T23:23:01.410Z,101412.13
2023-03-04T23:25:31.084Z,101374.09
2023-03-04T23:28:00.829Z,101416.03
2023-03-04T23:30:30.495Z,101388.72
2023-03-04T23:33:00.132Z,101408.56
2023-03-04T23:35:32.630Z,101415.38
2023-03-04T23:38:02.300Z,101416.06
2023-03-04T23:40:31.938Z,101351.09
2023-03-04T23:43:01.556Z,101361.19
2023-03-04T23:45:31.444Z,101428.44
2023-03-04T23:48:01.089Z,101422.25
2023-03-04T23:50:35.245Z,101392.81
2023-03-04T23:53:04.870Z,101394.38
2023-03-04T23:55:34.987Z,101418.59
2023-03-04T23:58:04.591Z,101402.56
